sensor_id;sensor_type;location;lat;lon;timestamp;pressure;altitude;pressure_sealevel;temperature;humidity
55576;BME280;41437;45.478;9.116;2023-01-16T00:01:45;98876.97;;;4.87;100.00
55576;BME280;41437;45.478;9.116;2023-01-16T00:04:47;98840.84;;;4.63;100.00
55576;BME280;41437;45.478;9.116;2023-01-16T00:07:48;98862.25;;;4.71;100.00
55576;BME280;41437;45.478;9.116;2023-01-16T00:10:50;98859.09;;;4.62;100.00
55576;BME280;41437;45.478;9.116;2023-01-16T00:13:53;98853.28;;;4.42;100.00
55576;BME280;41437;45.478;9.116;2023-01-16T00:16:55;98856.88;;;4.31;100.00
55576;BME280;41437;45.478;9.116;2023-01-16T00:19:57;98841.16;;;4.21;100.00
55576;BME280;41437;45.478;9.116;2023-01-16T00:22:59;98841.75;;;4.23;100.00
55576;BME280;41437;45.478;9.116;2023-01-16T00:26:04;98848.88;;;4.24;100.00
55576;BME280;41437;45.478;9.116;2023-01-16T00:29:07;98812.47;;;4.01;100.00
55576;BME280;41437;45.478;9.116;2023-01-16T00:32:09;98832.13;;;4.32;100.00
55576;BME280;41437;45.478;9.116;2023-01-16T00:35:11;98836.88;;;4.25;100.00
55576;BME280;41437;45.478;9.116;2023-01-16T00:38:14;98820.09;;;4.16;100.00
55576;BME280;41437;45.478;9.116;2023-01-16T00:41:16;98835.28;;;4.12;100.00
55576;BME280;41437;45.478;9.116;2023-01-16T00:44:19;98830.44;;;4.14;100.00
55576;BME280;41437;45.478;9.116;2023-01-16T00:47:21;98808.69;;;3.91;100.00
55576;BME280;41437;45.478;9.116;2023-01-16T00:50:22;98803.88;;;3.81;100.00
55576;BME280;41437;45.478;9.116;2023-01-16T00:53:24;98816.19;;;3.84;100.00
55576;BME280;41437;45.478;9.116;2023-01-16T00:56:25;98820.84;;;3.83;100.00
55576;BME280;41437;45.478;9.116;2023-01-16T00:59:29;98820.38;;;3.74;100.00
55576;BME280;41437;45.478;9.116;2023-01-16T01:02:31;98785.94;;;3.57;100.00
55576;BME280;41437;45.478;9.116;2023-01-16T01:05:35;98781.38;;;3.45;100.00
55576;BME280;41437;45.478;9.116;2023-01-16T01:08:37;98811.75;;;3.66;100.00
55576;BME280;41437;45.478;9.116;2023-01-16T01:11:39;98813.59;;;3.77;100.00
55576;BME280;41437;45.478;9.116;2023-01-16T01:14:43;98774.13;;;3.51;100.00
55576;BME280;41437;45.478;9.116;2023-01-16T01:17:45;98785.09;;;3.68;100.00
55576;BME280;41437;45.478;9.116;2023-01-16T01:20:46;98806.69;;;3.86;100.00
55576;BME280;41437;45.478;9.116;2023-01-16T01:23:48;98804.56;;;3.88;100.00
55576;BME280;41437;45.478;9.116;2023-01-16T01:26:50;98798.09;;;3.77;100.00
55576;BME280;41437;45.478;9.116;2023-01-16T01:29:53;98773.41;;;3.56;100.00
55576;BME280;41437;45.478;9.116;2023-01-16T01:32:55;98784.56;;;3.54;100.00
55576;BME280;41437;45.478;9.116;2023-01-16T01:35:57;98780.03;;;3.48;100.00
55576;BME280;41437;45.478;9.116;2023-01-16T01:38:58;98791.91;;;3.53;100.00
55576;BME280;41437;45.478;9.116;2023-01-16T01:42:00;98785.28;;;3.49;100.00
55576;BME280;41437;45.478;9.116;2023-01-16T01:45:24;98767.16;;;3.43;100.00
55576;BME280;41437;45.478;9.116;2023-01-16T01:48:27;98757.97;;;3.33;100.00
55576;BME280;41437;45.478;9.116;2023-01-16T01:51:33;98761.06;;;3.24;100.00
55576;BME280;41437;45.478;9.116;2023-01-16T01:54:38;98789.31;;;3.35;100.00
55576;BME280;41437;45.478;9.116;2023-01-16T01:57:44;98770.16;;;3.30;100.00
55576;BME280;41437;45.478;9.116;2023-01-16T02:00:50;98731.38;;;2.99;100.00
55576;BME280;41437;45.478;9.116;2023-01-16T02:03:57;98733.53;;;2.97;100.00
55576;BME280;41437;45.478;9.116;2023-01-16T02:07:01;98757.88;;;3.16;100.00
55576;BME280;41437;45.478;9.116;2023-01-16T02:10:11;98742.50;;;3.10;100.00
55576;BME280;41437;45.478;9.116;2023-01-16T02:13:15;98744.00;;;3.17;100.00
55576;BME280;41437;45.478;9.116;2023-01-16T02:16:18;98705.00;;;3.00;100.00
55576;BME280;41437;45.478;9.116;2023-01-16T02:19:43;98724.03;;;3.12;100.00
55576;BME280;41437;45.478;9.116;2023-01-16T02:27:02;98690.97;;;2.80;100.00
55576;BME280;41437;45.478;9.116;2023-01-16T02:30:15;98713.88;;;2.95;100.00
55576;BME280;41437;45.478;9.116;2023-01-16T02:33:24;98673.44;;;2.87;100.00
55576;BME280;41437;45.478;9.116;2023-01-16T02:36:37;98675.56;;;2.97;100.00
55576;BME280;41437;45.478;9.116;2023-01-16T02:39:47;98675.41;;;3.15;100.00
55576;BME280;41437;45.478;9.116;2023-01-16T02:43:01;98687.19;;;3.33;100.00
55576;BME280;41437;45.478;9.116;2023-01-16T02:46:15;98670.19;;;3.42;100.00
55576;BME280;41437;45.478;9.116;2023-01-16T02:49:28;98655.63;;;3.48;100.00
55576;BME280;41437;45.478;9.116;2023-01-16T02:52:35;98642.50;;;3.45;100.00
55576;BME280;41437;45.478;9.116;2023-01-16T02:55:42;98630.78;;;3.45;100.00
55576;BME280;41437;45.478;9.116;2023-01-16T02:58:48;98628.97;;;3.50;100.00
55576;BME280;41437;45.478;9.116;2023-01-16T03:01:50;98631.56;;;3.28;100.00
55576;BME280;41437;45.478;9.116;2023-01-16T03:04:53;98623.94;;;3.14;100.00
55576;BME280;41437;45.478;9.116;2023-01-16T03:08:21;98652.69;;;3.38;100.00
55576;BME280;41437;45.478;9.116;2023-01-16T03:11:27;98616.53;;;3.26;100.00
55576;BME280;41437;45.478;9.116;2023-01-16T03:14:35;98622.78;;;3.10;100.00
55576;BME280;41437;45.478;9.116;2023-01-16T03:17:45;98630.91;;;2.69;100.00
55576;BME280;41437;45.478;9.116;2023-01-16T03:20:56;98633.41;;;2.71;100.00
55576;BME280;41437;45.478;9.116;2023-01-16T03:24:06;98624.88;;;2.79;100.00
55576;BME280;41437;45.478;9.116;2023-01-16T03:27:15;98611.59;;;2.83;100.00
55576;BME280;41437;45.478;9.116;2023-01-16T03:30:24;98579.00;;;2.71;100.00
55576;BME280;41437;45.478;9.116;2023-01-16T03:33:33;98594.75;;;2.97;100.00
55576;BME280;41437;45.478;9.116;2023-01-16T03:36:48;98590.41;;;2.96;100.00
55576;BME280;41437;45.478;9.116;2023-01-16T03:39:55;98600.22;;;2.97;100.00
55576;BME280;41437;45.478;9.116;2023-01-16T03:43:01;98609.44;;;2.96;100.00
55576;BME280;41437;45.478;9.116;2023-01-16T03:46:07;98561.25;;;2.68;100.00
55576;BME280;41437;45.478;9.116;2023-01-16T03:49:12;98549.91;;;2.71;100.00
55576;BME280;41437;45.478;9.116;2023-01-16T03:52:20;98557.06;;;2.89;100.00
55576;BME280;41437;45.478;9.116;2023-01-16T03:55:26;98573.22;;;2.96;100.00
55576;BME280;41437;45.478;9.116;2023-01-16T03:58:34;98573.91;;;3.03;100.00
55576;BME280;41437;45.478;9.116;2023-01-16T04:01:40;98581.56;;;3.18;100.00
55576;BME280;41437;45.478;9.116;2023-01-16T04:04:51;98580.56;;;3.24;100.00
55576;BME280;41437;45.478;9.116;2023-01-16T04:07:57;98565.88;;;3.25;100.00
55576;BME280;41437;45.478;9.116;2023-01-16T04:11:00;98574.13;;;3.30;100.00
55576;BME280;41437;45.478;9.116;2023-01-16T04:14:03;98527.41;;;3.05;100.00
55576;BME280;41437;45.478;9.116;2023-01-16T04:17:06;98564.66;;;3.04;100.00
55576;BME280;41437;45.478;9.116;2023-01-16T04:20:09;98531.59;;;2.67;100.00
55576;BME280;41437;45.478;9.116;2023-01-16T04:23:13;98528.00;;;2.78;100.00
55576;BME280;41437;45.478;9.116;2023-01-16T04:26:16;98548.72;;;2.96;100.00
55576;BME280;41437;45.478;9.116;2023-01-16T04:29:18;98508.63;;;2.74;100.00
55576;BME280;41437;45.478;9.116;2023-01-16T04:32:19;98509.38;;;2.87;100.00
55576;BME280;41437;45.478;9.116;2023-01-16T04:35:21;98505.28;;;2.84;100.00
55576;BME280;41437;45.478;9.116;2023-01-16T04:38:24;98520.22;;;2.98;100.00
55576;BME280;41437;45.478;9.116;2023-01-16T04:41:26;98484.94;;;2.58;100.00
55576;BME280;41437;45.478;9.116;2023-01-16T04:44:40;98510.34;;;2.52;100.00
55576;BME280;41437;45.478;9.116;2023-01-16T04:47:45;98505.63;;;2.47;100.00
55576;BME280;41437;45.478;9.116;2023-01-16T04:50:47;98504.06;;;2.63;100.00
55576;BME280;41437;45.478;9.116;2023-01-16T04:53:51;98485.84;;;2.35;100.00
55576;BME280;41437;45.478;9.116;2023-01-16T04:56:53;98456.78;;;2.36;100.00
55576;BME280;41437;45.478;9.116;2023-01-16T04:59:56;98476.47;;;2.43;100.00
55576;BME280;41437;45.478;9.116;2023-01-16T05:02:57;98446.22;;;2.39;100.00
55576;BME280;41437;45.478;9.116;2023-01-16T05:05:59;98474.97;;;2.64;100.00
55576;BME280;41437;45.478;9.116;2023-01-16T05:09:04;98438.66;;;2.41;100.00
55576;BME280;41437;45.478;9.116;2023-01-16T05:12:06;98454.84;;;2.65;100.00
55576;BME280;41437;45.478;9.116;2023-01-16T05:15:10;98442.59;;;2.62;100.00
55576;BME280;41437;45.478;9.116;2023-01-16T05:18:14;98444.75;;;2.77;100.00
55576;BME280;41437;45.478;9.116;2023-01-16T05:21:15;98421.91;;;2.61;100.00
55576;BME280;41437;45.478;9.116;2023-01-16T05:24:18;98411.25;;;2.60;100.00
55576;BME280;41437;45.478;9.116;2023-01-16T05:27:20;98429.16;;;2.72;100.00
55576;BME280;41437;45.478;9.116;2023-01-16T05:30:22;98442.94;;;2.83;100.00
55576;BME280;41437;45.478;9.116;2023-01-16T05:33:23;98431.41;;;2.75;100.00
55576;BME280;41437;45.478;9.116;2023-01-16T05:36:25;98436.50;;;2.72;100.00
55576;BME280;41437;45.478;9.116;2023-01-16T05:39:28;98434.34;;;2.74;100.00
55576;BME280;41437;45.478;9.116;2023-01-16T05:42:30;98427.47;;;2.83;100.00
55576;BME280;41437;45.478;9.116;2023-01-16T05:45:32;98406.66;;;2.60;100.00
55576;BME280;41437;45.478;9.116;2023-01-16T05:48:33;98420.19;;;2.72;100.00
55576;BME280;41437;45.478;9.116;2023-01-16T05:51:36;98409.06;;;2.73;100.00
55576;BME280;41437;45.478;9.116;2023-01-16T05:54:39;98405.44;;;2.68;100.00
55576;BME280;41437;45.478;9.116;2023-01-16T05:57:40;98410.00;;;2.79;100.00
55576;BME280;41437;45.478;9.116;2023-01-16T06:00:42;98383.75;;;2.73;100.00
55576;BME280;41437;45.478;9.116;2023-01-16T06:03:44;98393.56;;;2.91;100.00
55576;BME280;41437;45.478;9.116;2023-01-16T06:06:46;98395.97;;;3.04;100.00
55576;BME280;41437;45.478;9.116;2023-01-16T06:09:48;98352.13;;;2.84;100.00
55576;BME280;41437;45.478;9.116;2023-01-16T06:12:50;98350.38;;;2.94;100.00
55576;BME280;41437;45.478;9.116;2023-01-16T06:15:52;98373.63;;;3.19;100.00
55576;BME280;41437;45.478;9.116;2023-01-16T06:18:53;98339.09;;;3.02;100.00
55576;BME280;41437;45.478;9.116;2023-01-16T06:21:55;98349.06;;;3.14;100.00
55576;BME280;41437;45.478;9.116;2023-01-16T06:24:58;98360.44;;;3.11;100.00
55576;BME280;41437;45.478;9.116;2023-01-16T06:28:01;98346.34;;;2.97;100.00
55576;BME280;41437;45.478;9.116;2023-01-16T06:31:02;98330.38;;;2.84;100.00
55576;BME280;41437;45.478;9.116;2023-01-16T06:34:04;98355.81;;;2.94;100.00
55576;BME280;41437;45.478;9.116;2023-01-16T06:37:05;98311.88;;;2.69;100.00
55576;BME280;41437;45.478;9.116;2023-01-16T06:40:10;98289.72;;;2.60;100.00
55576;BME280;41437;45.478;9.116;2023-01-16T06:43:11;98293.84;;;2.63;100.00
55576;BME280;41437;45.478;9.116;2023-01-16T06:46:13;98300.19;;;2.68;100.00
55576;BME280;41437;45.478;9.116;2023-01-16T06:49:16;98335.00;;;2.83;100.00
55576;BME280;41437;45.478;9.116;2023-01-16T06:52:18;98298.97;;;2.59;100.00
55576;BME280;41437;45.478;9.116;2023-01-16T06:55:21;98326.88;;;2.55;100.00
55576;BME280;41437;45.478;9.116;2023-01-16T06:58:23;98330.00;;;2.46;100.00
55576;BME280;41437;45.478;9.116;2023-01-16T07:01:24;98325.06;;;1.98;100.00
55576;BME280;41437;45.478;9.116;2023-01-16T07:04:26;98306.56;;;2.12;100.00
55576;BME280;41437;45.478;9.116;2023-01-16T07:07:27;98313.75;;;2.18;100.00
55576;BME280;41437;45.478;9.116;2023-01-16T07:10:30;98303.53;;;1.80;100.00
55576;BME280;41437;45.478;9.116;2023-01-16T07:13:32;98285.84;;;1.65;100.00
55576;BME280;41437;45.478;9.116;2023-01-16T07:16:34;98310.19;;;1.60;100.00
55576;BME280;41437;45.478;9.116;2023-01-16T07:19:53;98301.59;;;1.51;100.00
55576;BME280;41437;45.478;9.116;2023-01-16T07:23:16;98316.03;;;1.40;100.00
55576;BME280;41437;45.478;9.116;2023-01-16T07:26:22;98324.16;;;1.40;100.00
55576;BME280;41437;45.478;9.116;2023-01-16T07:29:24;98307.53;;;1.25;100.00
55576;BME280;41437;45.478;9.116;2023-01-16T07:32:26;98293.50;;;1.28;100.00
55576;BME280;41437;45.478;9.116;2023-01-16T07:35:28;98303.25;;;1.53;100.00
55576;BME280;41437;45.478;9.116;2023-01-16T07:38:30;98294.44;;;1.74;100.00
55576;BME280;41437;45.478;9.116;2023-01-16T07:41:33;98303.44;;;1.91;100.00
55576;BME280;41437;45.478;9.116;2023-01-16T07:44:35;98295.25;;;2.03;100.00
55576;BME280;41437;45.478;9.116;2023-01-16T07:47:37;98275.91;;;1.99;100.00
55576;BME280;41437;45.478;9.116;2023-01-16T07:50:38;98294.53;;;2.08;100.00
55576;BME280;41437;45.478;9.116;2023-01-16T07:53:40;98298.72;;;1.98;100.00
55576;BME280;41437;45.478;9.116;2023-01-16T07:56:43;98305.00;;;1.59;100.00
55576;BME280;41437;45.478;9.116;2023-01-16T07:59:44;98259.69;;;1.47;100.00
55576;BME280;41437;45.478;9.116;2023-01-16T08:02:46;98288.00;;;1.63;100.00
55576;BME280;41437;45.478;9.116;2023-01-16T08:05:48;98273.84;;;1.61;100.00
55576;BME280;41437;45.478;9.116;2023-01-16T08:08:50;98250.72;;;1.59;100.00
55576;BME280;41437;45.478;9.116;2023-01-16T08:11:53;98269.13;;;1.85;100.00
55576;BME280;41437;45.478;9.116;2023-01-16T08:14:55;98275.38;;;1.86;100.00
55576;BME280;41437;45.478;9.116;2023-01-16T08:17:56;98257.19;;;1.86;100.00
55576;BME280;41437;45.478;9.116;2023-01-16T08:20:58;98247.16;;;1.87;100.00
55576;BME280;41437;45.478;9.116;2023-01-16T08:24:00;98201.25;;;1.57;100.00
55576;BME280;41437;45.478;9.116;2023-01-16T08:27:03;98232.81;;;1.74;100.00
55576;BME280;41437;45.478;9.116;2023-01-16T08:30:05;98242.97;;;1.79;100.00
55576;BME280;41437;45.478;9.116;2023-01-16T08:33:07;98218.13;;;1.87;100.00
55576;BME280;41437;45.478;9.116;2023-01-16T08:36:11;98255.78;;;2.29;100.00
55576;BME280;41437;45.478;9.116;2023-01-16T08:39:13;98251.50;;;2.50;100.00
55576;BME280;41437;45.478;9.116;2023-01-16T08:42:16;98223.44;;;2.44;100.00
55576;BME280;41437;45.478;9.116;2023-01-16T08:45:35;98204.88;;;2.58;100.00
55576;BME280;41437;45.478;9.116;2023-01-16T08:48:54;98210.41;;;2.85;100.00
55576;BME280;41437;45.478;9.116;2023-01-16T08:52:13;98206.78;;;2.96;100.00
55576;BME280;41437;45.478;9.116;2023-01-16T08:55:16;98190.91;;;3.10;100.00
55576;BME280;41437;45.478;9.116;2023-01-16T08:58:19;98177.22;;;3.27;100.00
55576;BME280;41437;45.478;9.116;2023-01-16T09:01:22;98190.16;;;3.64;100.00
55576;BME280;41437;45.478;9.116;2023-01-16T09:04:24;98140.75;;;3.55;100.00
55576;BME280;41437;45.478;9.116;2023-01-16T09:07:26;98164.66;;;3.75;100.00
55576;BME280;41437;45.478;9.116;2023-01-16T09:10:27;98152.84;;;3.64;100.00
55576;BME280;41437;45.478;9.116;2023-01-16T09:13:31;98157.09;;;3.82;100.00
55576;BME280;41437;45.478;9.116;2023-01-16T09:16:50;98156.06;;;3.88;100.00
55576;BME280;41437;45.478;9.116;2023-01-16T09:19:52;98181.78;;;3.97;100.00
55576;BME280;41437;45.478;9.116;2023-01-16T09:22:57;98153.22;;;4.05;100.00
55576;BME280;41437;45.478;9.116;2023-01-16T09:25:59;98134.16;;;4.05;100.00
55576;BME280;41437;45.478;9.116;2023-01-16T09:29:02;98152.69;;;4.40;100.00
55576;BME280;41437;45.478;9.116;2023-01-16T09:32:03;98104.63;;;4.34;100.00
55576;BME280;41437;45.478;9.116;2023-01-16T09:35:08;98131.50;;;4.58;100.00
55576;BME280;41437;45.478;9.116;2023-01-16T09:38:10;98110.84;;;4.67;100.00
55576;BME280;41437;45.478;9.116;2023-01-16T09:41:14;98114.91;;;4.64;100.00
55576;BME280;41437;45.478;9.116;2023-01-16T09:44:39;98108.31;;;4.55;100.00
55576;BME280;41437;45.478;9.116;2023-01-16T09:47:43;98126.63;;;4.65;100.00
55576;BME280;41437;45.478;9.116;2023-01-16T09:50:51;98115.66;;;4.49;100.00
55576;BME280;41437;45.478;9.116;2023-01-16T09:53:58;98096.38;;;4.24;100.00
55576;BME280;41437;45.478;9.116;2023-01-16T09:57:17;98100.69;;;4.15;100.00
55576;BME280;41437;45.478;9.116;2023-01-16T10:00:38;98059.84;;;3.83;100.00
55576;BME280;41437;45.478;9.116;2023-01-16T10:03:39;98096.25;;;4.03;100.00
55576;BME280;41437;45.478;9.116;2023-01-16T10:06:50;98105.25;;;4.09;100.00
55576;BME280;41437;45.478;9.116;2023-01-16T10:09:59;98104.41;;;4.03;100.00
55576;BME280;41437;45.478;9.116;2023-01-16T10:13:13;98118.00;;;3.98;100.00
55576;BME280;41437;45.478;9.116;2023-01-16T10:16:22;98091.38;;;3.73;100.00
55576;BME280;41437;45.478;9.116;2023-01-16T10:19:37;98099.53;;;3.73;100.00
55576;BME280;41437;45.478;9.116;2023-01-16T10:22:52;98087.09;;;3.50;100.00
55576;BME280;41437;45.478;9.116;2023-01-16T10:26:01;98082.84;;;3.65;100.00
55576;BME280;41437;45.478;9.116;2023-01-16T10:29:17;98036.81;;;3.31;100.00
55576;BME280;41437;45.478;9.116;2023-01-16T10:32:29;98048.97;;;3.50;100.00
55576;BME280;41437;45.478;9.116;2023-01-16T10:35:36;98060.13;;;3.49;100.00
55576;BME280;41437;45.478;9.116;2023-01-16T10:38:41;98051.81;;;3.34;100.00
55576;BME280;41437;45.478;9.116;2023-01-16T10:41:48;98035.72;;;3.32;100.00
55576;BME280;41437;45.478;9.116;2023-01-16T10:45:19;97989.59;;;3.15;100.00
55576;BME280;41437;45.478;9.116;2023-01-16T10:48:40;98024.53;;;3.61;100.00
55576;BME280;41437;45.478;9.116;2023-01-16T10:52:14;98007.13;;;3.62;100.00
55576;BME280;41437;45.478;9.116;2023-01-16T10:55:16;97985.22;;;3.46;100.00
55576;BME280;41437;45.478;9.116;2023-01-16T10:58:24;98002.66;;;3.50;100.00
55576;BME280;41437;45.478;9.116;2023-01-16T11:01:27;97977.72;;;3.26;100.00
55576;BME280;41437;45.478;9.116;2023-01-16T11:04:35;97964.84;;;3.22;100.00
55576;BME280;41437;45.478;9.116;2023-01-16T11:07:37;97976.63;;;3.27;100.00
55576;BME280;41437;45.478;9.116;2023-01-16T11:10:40;97937.59;;;3.17;100.00
55576;BME280;41437;45.478;9.116;2023-01-16T11:13:42;97974.03;;;3.43;100.00
55576;BME280;41437;45.478;9.116;2023-01-16T11:17:21;97967.81;;;3.52;100.00
55576;BME280;41437;45.478;9.116;2023-01-16T11:20:42;97910.38;;;3.17;100.00
55576;BME280;41437;45.478;9.116;2023-01-16T11:23:47;97939.25;;;3.55;100.00
55576;BME280;41437;45.478;9.116;2023-01-16T11:26:51;97919.13;;;3.56;100.00
55576;BME280;41437;45.478;9.116;2023-01-16T11:29:55;97923.81;;;3.66;100.00
55576;BME280;41437;45.478;9.116;2023-01-16T11:32:59;97930.19;;;3.87;100.00
55576;BME280;41437;45.478;9.116;2023-01-16T11:36:09;97884.38;;;3.78;100.00
55576;BME280;41437;45.478;9.116;2023-01-16T11:39:19;97905.47;;;3.98;100.00
55576;BME280;41437;45.478;9.116;2023-01-16T11:42:22;97887.81;;;4.11;100.00
55576;BME280;41437;45.478;9.116;2023-01-16T11:45:43;97869.31;;;4.18;100.00
55576;BME280;41437;45.478;9.116;2023-01-16T11:49:15;97831.38;;;4.17;100.00
55576;BME280;41437;45.478;9.116;2023-01-16T11:52:20;97838.53;;;4.28;100.00
55576;BME280;41437;45.478;9.116;2023-01-16T11:55:34;97835.78;;;4.23;100.00
55576;BME280;41437;45.478;9.116;2023-01-16T11:58:48;97825.13;;;4.16;100.00
55576;BME280;41437;45.478;9.116;2023-01-16T12:02:00;97836.84;;;4.17;100.00
55576;BME280;41437;45.478;9.116;2023-01-16T12:05:26;97830.84;;;4.15;100.00
55576;BME280;41437;45.478;9.116;2023-01-16T12:09:16;97837.13;;;4.25;100.00
55576;BME280;41437;45.478;9.116;2023-01-16T12:12:29;97825.13;;;4.16;100.00
55576;BME280;41437;45.478;9.116;2023-01-16T12:16:00;97818.88;;;4.26;100.00
55576;BME280;41437;45.478;9.116;2023-01-16T12:19:20;97786.69;;;4.18;100.00
55576;BME280;41437;45.478;9.116;2023-01-16T12:26:01;97786.44;;;4.24;100.00
55576;BME280;41437;45.478;9.116;2023-01-16T12:29:15;97764.88;;;4.13;100.00
55576;BME280;41437;45.478;9.116;2023-01-16T12:32:32;97768.44;;;4.18;100.00
55576;BME280;41437;45.478;9.116;2023-01-16T12:35:47;97759.19;;;4.14;100.00
55576;BME280;41437;45.478;9.116;2023-01-16T12:38:55;97746.94;;;4.32;100.00
55576;BME280;41437;45.478;9.116;2023-01-16T12:42:08;97750.50;;;4.53;100.00
55576;BME280;41437;45.478;9.116;2023-01-16T12:45:39;97729.22;;;4.45;100.00
55576;BME280;41437;45.478;9.116;2023-01-16T12:48:55;97728.41;;;4.44;100.00
55576;BME280;41437;45.478;9.116;2023-01-16T12:52:11;97740.38;;;4.64;100.00
55576;BME280;41437;45.478;9.116;2023-01-16T12:55:34;97728.34;;;4.70;100.00
55576;BME280;41437;45.478;9.116;2023-01-16T12:58:44;97742.53;;;4.77;100.00
55576;BME280;41437;45.478;9.116;2023-01-16T13:01:54;97744.19;;;4.78;100.00
55576;BME280;41437;45.478;9.116;2023-01-16T13:05:00;97739.84;;;4.67;100.00
55576;BME280;41437;45.478;9.116;2023-01-16T13:08:06;97716.34;;;4.66;100.00
55576;BME280;41437;45.478;9.116;2023-01-16T13:11:16;97736.00;;;4.73;100.00
55576;BME280;41437;45.478;9.116;2023-01-16T13:14:42;97740.09;;;4.75;100.00
55576;BME280;41437;45.478;9.116;2023-01-16T13:17:48;97729.47;;;4.69;100.00
55576;BME280;41437;45.478;9.116;2023-01-16T13:20:52;97728.63;;;4.89;100.00
55576;BME280;41437;45.478;9.116;2023-01-16T13:23:58;97702.19;;;4.69;100.00
55576;BME280;41437;45.478;9.116;2023-01-16T13:27:02;97696.44;;;4.65;100.00
55576;BME280;41437;45.478;9.116;2023-01-16T13:30:12;97715.81;;;4.74;100.00
55576;BME280;41437;45.478;9.116;2023-01-16T13:33:18;97700.84;;;4.66;100.00
55576;BME280;41437;45.478;9.116;2023-01-16T13:40:18;97733.53;;;4.97;100.00
55576;BME280;41437;45.478;9.116;2023-01-16T13:43:29;97718.25;;;4.91;100.00
55576;BME280;41437;45.478;9.116;2023-01-16T13:46:52;97739.50;;;5.14;100.00
55576;BME280;41437;45.478;9.116;2023-01-16T13:49:55;97710.88;;;5.01;100.00
55576;BME280;41437;45.478;9.116;2023-01-16T13:53:05;97728.31;;;5.11;100.00
55576;BME280;41437;45.478;9.116;2023-01-16T13:56:10;97726.13;;;5.02;100.00
55576;BME280;41437;45.478;9.116;2023-01-16T13:59:29;97718.50;;;4.99;100.00
55576;BME280;41437;45.478;9.116;2023-01-16T14:02:43;97714.41;;;4.97;100.00
55576;BME280;41437;45.478;9.116;2023-01-16T14:05:50;97721.47;;;5.08;100.00
55576;BME280;41437;45.478;9.116;2023-01-16T14:09:12;97700.22;;;4.95;100.00
55576;BME280;41437;45.478;9.116;2023-01-16T14:12:21;97667.53;;;4.79;100.00
55576;BME280;41437;45.478;9.116;2023-01-16T14:15:43;97695.56;;;5.06;100.00
55576;BME280;41437;45.478;9.116;2023-01-16T14:19:22;97699.94;;;5.07;100.00
55576;BME280;41437;45.478;9.116;2023-01-16T14:22:26;97692.31;;;4.93;100.00
55576;BME280;41437;45.478;9.116;2023-01-16T14:25:53;97686.00;;;5.03;100.00
55576;BME280;41437;45.478;9.116;2023-01-16T14:28:56;97677.63;;;4.84;100.00
55576;BME280;41437;45.478;9.116;2023-01-16T14:32:01;97675.72;;;4.64;100.00
55576;BME280;41437;45.478;9.116;2023-01-16T14:35:14;97637.59;;;4.49;100.00
55576;BME280;41437;45.478;9.116;2023-01-16T14:38:19;97630.75;;;4.46;100.00
55576;BME280;41437;45.478;9.116;2023-01-16T14:41:27;97630.75;;;4.46;100.00
55576;BME280;41437;45.478;9.116;2023-01-16T14:48:44;97635.66;;;4.54;100.00
55576;BME280;41437;45.478;9.116;2023-01-16T14:52:09;97619.59;;;4.53;100.00
55576;BME280;41437;45.478;9.116;2023-01-16T14:55:45;97614.63;;;4.60;100.00
55576;BME280;41437;45.478;9.116;2023-01-16T14:58:52;97604.03;;;4.53;100.00
55576;BME280;41437;45.478;9.116;2023-01-16T15:01:59;97632.91;;;4.60;100.00
55576;BME280;41437;45.478;9.116;2023-01-16T15:05:23;97628.56;;;4.64;100.00
55576;BME280;41437;45.478;9.116;2023-01-16T15:08:53;97623.09;;;4.64;100.00
55576;BME280;41437;45.478;9.116;2023-01-16T15:11:58;97613.00;;;4.59;100.00
55576;BME280;41437;45.478;9.116;2023-01-16T15:15:02;97586.56;;;4.54;100.00
55576;BME280;41437;45.478;9.116;2023-01-16T15:18:04;97607.78;;;4.73;100.00
55576;BME280;41437;45.478;9.116;2023-01-16T15:21:23;97628.75;;;4.83;100.00
55576;BME280;41437;45.478;9.116;2023-01-16T15:24:50;97616.28;;;4.66;100.00
55576;BME280;41437;45.478;9.116;2023-01-16T15:28:02;97581.66;;;4.57;100.00
55576;BME280;41437;45.478;9.116;2023-01-16T15:31:09;97622.25;;;4.73;100.00
55576;BME280;41437;45.478;9.116;2023-01-16T15:34:24;97631.56;;;4.62;100.00
55576;BME280;41437;45.478;9.116;2023-01-16T15:37:26;97602.41;;;4.47;100.00
55576;BME280;41437;45.478;9.116;2023-01-16T15:40:30;97620.09;;;4.70;100.00
55576;BME280;41437;45.478;9.116;2023-01-16T15:43:32;97594.16;;;4.68;100.00
55576;BME280;41437;45.478;9.116;2023-01-16T15:46:59;97592.78;;;4.75;100.00
55576;BME280;41437;45.478;9.116;2023-01-16T15:50:12;97613.22;;;4.78;100.00
55576;BME280;41437;45.478;9.116;2023-01-16T15:53:16;97595.81;;;4.64;100.00
55576;BME280;41437;45.478;9.116;2023-01-16T15:56:21;97596.34;;;4.71;100.00
55576;BME280;41437;45.478;9.116;2023-01-16T15:59:27;97604.75;;;4.85;100.00
55576;BME280;41437;45.478;9.116;2023-01-16T16:02:30;97576.13;;;4.77;100.00
55576;BME280;41437;45.478;9.116;2023-01-16T16:05:34;97591.94;;;4.85;100.00
55576;BME280;41437;45.478;9.116;2023-01-16T16:08:39;97592.75;;;4.86;100.00
55576;BME280;41437;45.478;9.116;2023-01-16T16:11:44;97601.97;;;4.95;100.00
55576;BME280;41437;45.478;9.116;2023-01-16T16:15:16;97600.34;;;4.94;100.00
55576;BME280;41437;45.478;9.116;2023-01-16T16:18:35;97611.56;;;4.87;100.00
55576;BME280;41437;45.478;9.116;2023-01-16T16:21:44;97560.44;;;4.48;100.00
55576;BME280;41437;45.478;9.116;2023-01-16T16:25:12;97614.88;;;4.74;100.00
55576;BME280;41437;45.478;9.116;2023-01-16T16:28:34;97602.03;;;4.74;100.00
55576;BME280;41437;45.478;9.116;2023-01-16T16:31:38;97553.84;;;4.54;100.00
55576;BME280;41437;45.478;9.116;2023-01-16T16:34:51;97597.91;;;4.87;100.00
55576;BME280;41437;45.478;9.116;2023-01-16T16:37:54;97594.09;;;4.93;100.00
55576;BME280;41437;45.478;9.116;2023-01-16T16:45:09;97580.19;;;4.90;100.00
55576;BME280;41437;45.478;9.116;2023-01-16T16:48:23;97581.00;;;4.85;100.00
55576;BME280;41437;45.478;9.116;2023-01-16T16:51:27;97589.19;;;4.90;100.00
55576;BME280;41437;45.478;9.116;2023-01-16T16:54:33;97607.94;;;5.07;100.00